sensor_id;sensor_type;location;lat;lon;timestamp;P1;durP1;ratioP1;P2;durP2;ratioP2
23714;SDS011;12036;50.858;4.472;2023-02-01T00:01:54;24.00;;;6.53;;
23714;SDS011;12036;50.858;4.472;2023-02-01T00:04:20;21.05;;;6.40;;
23714;SDS011;12036;50.858;4.472;2023-02-01T00:06:46;21.30;;;5.40;;
23714;SDS011;12036;50.858;4.472;2023-02-01T00:09:12;19.60;;;5.80;;
23714;SDS011;12036;50.858;4.472;2023-02-01T00:11:37;16.63;;;6.25;;
23714;SDS011;12036;50.858;4.472;2023-02-01T00:14:03;17.35;;;5.30;;
23714;SDS011;12036;50.858;4.472;2023-02-01T00:16:29;16.33;;;5.93;;
23714;SDS011;12036;50.858;4.472;2023-02-01T00:19:00;15.88;;;6.70;;
23714;SDS011;12036;50.858;4.472;2023-02-01T00:21:31;22.00;;;6.95;;
23714;SDS011;12036;50.858;4.472;2023-02-01T00:23:57;16.00;;;6.57;;
23714;SDS011;12036;50.858;4.472;2023-02-01T00:26:33;14.68;;;7.05;;
23714;SDS011;12036;50.858;4.472;2023-02-01T00:29:09;17.83;;;6.85;;
23714;SDS011;12036;50.858;4.472;2023-02-01T00:31:37;25.27;;;7.15;;
23714;SDS011;12036;50.858;4.472;2023-02-01T00:34:03;17.50;;;7.00;;
23714;SDS011;12036;50.858;4.472;2023-02-01T00:36:29;23.58;;;8.05;;
23714;SDS011;12036;50.858;4.472;2023-02-01T00:38:55;25.42;;;8.30;;
23714;SDS011;12036;50.858;4.472;2023-02-01T00:41:21;14.60;;;6.80;;
23714;SDS011;12036;50.858;4.472;2023-02-01T00:43:48;21.20;;;6.97;;
23714;SDS011;12036;50.858;4.472;2023-02-01T00:46:15;18.98;;;6.32;;
23714;SDS011;12036;50.858;4.472;2023-02-01T00:48:42;18.60;;;6.75;;
23714;SDS011;12036;50.858;4.472;2023-02-01T00:51:10;20.55;;;7.03;;
23714;SDS011;12036;50.858;4.472;2023-02-01T00:53:38;21.25;;;6.38;;
23714;SDS011;12036;50.858;4.472;2023-02-01T00:56:04;18.15;;;6.43;;
23714;SDS011;12036;50.858;4.472;2023-02-01T00:58:30;16.50;;;6.10;;
23714;SDS011;12036;50.858;4.472;2023-02-01T01:03:58;19.57;;;5.20;;
23714;SDS011;12036;50.858;4.472;2023-02-01T01:06:28;18.52;;;5.15;;
23714;SDS011;12036;50.858;4.472;2023-02-01T01:08:56;20.20;;;5.32;;
23714;SDS011;12036;50.858;4.472;2023-02-01T01:11:25;14.60;;;5.68;;
23714;SDS011;12036;50.858;4.472;2023-02-01T01:13:53;20.75;;;5.07;;
23714;SDS011;12036;50.858;4.472;2023-02-01T01:16:21;18.75;;;6.10;;
23714;SDS011;12036;50.858;4.472;2023-02-01T01:18:48;18.25;;;4.82;;
23714;SDS011;12036;50.858;4.472;2023-02-01T01:21:15;14.65;;;5.10;;
23714;SDS011;12036;50.858;4.472;2023-02-01T01:23:42;17.27;;;5.57;;
23714;SDS011;12036;50.858;4.472;2023-02-01T01:26:18;17.65;;;5.22;;
23714;SDS011;12036;50.858;4.472;2023-02-01T01:28:46;16.23;;;5.25;;
23714;SDS011;12036;50.858;4.472;2023-02-01T01:31:12;19.15;;;5.10;;
23714;SDS011;12036;50.858;4.472;2023-02-01T01:33:39;22.20;;;5.50;;
23714;SDS011;12036;50.858;4.472;2023-02-01T01:36:08;22.63;;;5.50;;
23714;SDS011;12036;50.858;4.472;2023-02-01T01:38:36;17.73;;;5.53;;
23714;SDS011;12036;50.858;4.472;2023-02-01T01:41:02;12.60;;;4.43;;
23714;SDS011;12036;50.858;4.472;2023-02-01T01:43:46;19.83;;;4.88;;
23714;SDS011;12036;50.858;4.472;2023-02-01T01:46:36;15.15;;;4.40;;
23714;SDS011;12036;50.858;4.472;2023-02-01T01:49:13;17.38;;;4.22;;
23714;SDS011;12036;50.858;4.472;2023-02-01T01:51:52;22.85;;;4.50;;
23714;SDS011;12036;50.858;4.472;2023-02-01T01:54:24;21.33;;;3.53;;
23714;SDS011;12036;50.858;4.472;2023-02-01T01:56:59;15.70;;;3.85;;
23714;SDS011;12036;50.858;4.472;2023-02-01T01:59:32;17.83;;;3.30;;
23714;SDS011;12036;50.858;4.472;2023-02-01T02:02:01;17.05;;;3.50;;
23714;SDS011;12036;50.858;4.472;2023-02-01T02:04:27;8.45;;;2.97;;
23714;SDS011;12036;50.858;4.472;2023-02-01T02:06:57;18.13;;;3.67;;
23714;SDS011;12036;50.858;4.472;2023-02-01T02:09:29;16.48;;;2.95;;
23714;SDS011;12036;50.858;4.472;2023-02-01T02:11:55;11.45;;;2.60;;
23714;SDS011;12036;50.858;4.472;2023-02-01T02:14:21;20.48;;;3.38;;
23714;SDS011;12036;50.858;4.472;2023-02-01T02:17:07;12.95;;;2.80;;
23714;SDS011;12036;50.858;4.472;2023-02-01T02:33:58;14.80;;;3.03;;
23714;SDS011;12036;50.858;4.472;2023-02-01T02:44:56;14.73;;;2.95;;
23714;SDS011;12036;50.858;4.472;2023-02-01T02:48:35;12.93;;;2.85;;
23714;SDS011;12036;50.858;4.472;2023-02-01T02:50:53;14.32;;;2.90;;
23714;SDS011;12036;50.858;4.472;2023-02-01T02:57:10;15.85;;;2.75;;
23714;SDS011;12036;50.858;4.472;2023-02-01T03:00:04;14.25;;;3.28;;
23714;SDS011;12036;50.858;4.472;2023-02-01T03:02:51;14.50;;;2.97;;
23714;SDS011;12036;50.858;4.472;2023-02-01T03:05:37;18.77;;;2.80;;
23714;SDS011;12036;50.858;4.472;2023-02-01T03:08:11;18.38;;;3.47;;
23714;SDS011;12036;50.858;4.472;2023-02-01T03:10:40;13.32;;;2.97;;
23714;SDS011;12036;50.858;4.472;2023-02-01T03:21:21;18.70;;;2.88;;
23714;SDS011;12036;50.858;4.472;2023-02-01T03:24:30;12.82;;;2.90;;
23714;SDS011;12036;50.858;4.472;2023-02-01T03:27:34;17.77;;;3.28;;
23714;SDS011;12036;50.858;4.472;2023-02-01T03:32:43;21.48;;;3.20;;
23714;SDS011;12036;50.858;4.472;2023-02-01T03:38:27;16.95;;;2.85;;
23714;SDS011;12036;50.858;4.472;2023-02-01T03:41:02;16.75;;;3.10;;
23714;SDS011;12036;50.858;4.472;2023-02-01T03:43:32;19.30;;;3.42;;
23714;SDS011;12036;50.858;4.472;2023-02-01T03:46:03;14.95;;;3.00;;
23714;SDS011;12036;50.858;4.472;2023-02-01T03:48:34;13.60;;;2.85;;
23714;SDS011;12036;50.858;4.472;2023-02-01T03:51:02;19.83;;;2.72;;
23714;SDS011;12036;50.858;4.472;2023-02-01T03:53:30;15.20;;;2.78;;
23714;SDS011;12036;50.858;4.472;2023-02-01T03:55:56;15.40;;;2.65;;
23714;SDS011;12036;50.858;4.472;2023-02-01T03:58:23;17.38;;;2.92;;
23714;SDS011;12036;50.858;4.472;2023-02-01T04:03:19;15.35;;;2.67;;
23714;SDS011;12036;50.858;4.472;2023-02-01T04:05:46;14.70;;;2.50;;
23714;SDS011;12036;50.858;4.472;2023-02-01T04:08:13;23.70;;;3.25;;
23714;SDS011;12036;50.858;4.472;2023-02-01T04:10:38;15.25;;;2.60;;
23714;SDS011;12036;50.858;4.472;2023-02-01T04:13:04;17.25;;;3.00;;
23714;SDS011;12036;50.858;4.472;2023-02-01T04:15:29;15.98;;;3.03;;
23714;SDS011;12036;50.858;4.472;2023-02-01T04:17:55;16.38;;;2.75;;
23714;SDS011;12036;50.858;4.472;2023-02-01T04:20:21;14.82;;;2.70;;
23714;SDS011;12036;50.858;4.472;2023-02-01T04:22:46;18.65;;;2.80;;
23714;SDS011;12036;50.858;4.472;2023-02-01T04:25:12;12.18;;;3.05;;
23714;SDS011;12036;50.858;4.472;2023-02-01T04:27:38;19.27;;;3.45;;
23714;SDS011;12036;50.858;4.472;2023-02-01T04:30:04;19.50;;;3.13;;
23714;SDS011;12036;50.858;4.472;2023-02-01T04:32:34;16.73;;;3.27;;
23714;SDS011;12036;50.858;4.472;2023-02-01T04:35:00;12.80;;;2.97;;
23714;SDS011;12036;50.858;4.472;2023-02-01T04:37:26;14.30;;;2.65;;
23714;SDS011;12036;50.858;4.472;2023-02-01T04:39:52;11.45;;;2.20;;
23714;SDS011;12036;50.858;4.472;2023-02-01T04:42:17;20.98;;;3.20;;
23714;SDS011;12036;50.858;4.472;2023-02-01T04:44:43;11.93;;;2.35;;
23714;SDS011;12036;50.858;4.472;2023-02-01T04:47:08;15.45;;;2.55;;
23714;SDS011;12036;50.858;4.472;2023-02-01T04:49:34;9.13;;;2.60;;
23714;SDS011;12036;50.858;4.472;2023-02-01T04:52:00;22.38;;;3.95;;
23714;SDS011;12036;50.858;4.472;2023-02-01T04:54:26;19.60;;;3.20;;
23714;SDS011;12036;50.858;4.472;2023-02-01T04:56:51;15.85;;;2.53;;
23714;SDS011;12036;50.858;4.472;2023-02-01T04:59:17;20.80;;;3.58;;
23714;SDS011;12036;50.858;4.472;2023-02-01T05:01:43;17.35;;;3.42;;
23714;SDS011;12036;50.858;4.472;2023-02-01T05:04:08;19.23;;;2.65;;
23714;SDS011;12036;50.858;4.472;2023-02-01T05:06:34;10.50;;;1.90;;
23714;SDS011;12036;50.858;4.472;2023-02-01T05:09:00;14.48;;;2.80;;
23714;SDS011;12036;50.858;4.472;2023-02-01T05:11:25;11.85;;;2.47;;
23714;SDS011;12036;50.858;4.472;2023-02-01T05:14:09;13.18;;;2.92;;
23714;SDS011;12036;50.858;4.472;2023-02-01T05:16:36;12.27;;;2.80;;
23714;SDS011;12036;50.858;4.472;2023-02-01T05:19:01;17.20;;;2.67;;
23714;SDS011;12036;50.858;4.472;2023-02-01T05:21:27;23.27;;;3.47;;
23714;SDS011;12036;50.858;4.472;2023-02-01T05:23:53;14.45;;;3.20;;
23714;SDS011;12036;50.858;4.472;2023-02-01T05:26:37;23.73;;;4.18;;
23714;SDS011;12036;50.858;4.472;2023-02-01T05:29:04;17.63;;;3.35;;
23714;SDS011;12036;50.858;4.472;2023-02-01T05:31:31;19.30;;;2.63;;
23714;SDS011;12036;50.858;4.472;2023-02-01T05:33:56;15.32;;;2.47;;
23714;SDS011;12036;50.858;4.472;2023-02-01T05:36:22;15.60;;;2.88;;
23714;SDS011;12036;50.858;4.472;2023-02-01T05:38:48;17.88;;;2.80;;
23714;SDS011;12036;50.858;4.472;2023-02-01T05:41:13;18.90;;;2.83;;
23714;SDS011;12036;50.858;4.472;2023-02-01T05:43:39;20.95;;;2.75;;
23714;SDS011;12036;50.858;4.472;2023-02-01T05:46:05;14.38;;;2.92;;
23714;SDS011;12036;50.858;4.472;2023-02-01T05:48:30;18.42;;;3.03;;
23714;SDS011;12036;50.858;4.472;2023-02-01T05:50:56;17.35;;;2.63;;
23714;SDS011;12036;50.858;4.472;2023-02-01T05:53:22;15.93;;;2.67;;
23714;SDS011;12036;50.858;4.472;2023-02-01T05:55:47;17.58;;;3.45;;
23714;SDS011;12036;50.858;4.472;2023-02-01T05:58:13;21.50;;;3.35;;
23714;SDS011;12036;50.858;4.472;2023-02-01T06:00:39;13.93;;;2.55;;
23714;SDS011;12036;50.858;4.472;2023-02-01T06:03:05;22.98;;;3.17;;
23714;SDS011;12036;50.858;4.472;2023-02-01T06:05:31;15.55;;;2.53;;
23714;SDS011;12036;50.858;4.472;2023-02-01T06:07:57;12.75;;;3.08;;
23714;SDS011;12036;50.858;4.472;2023-02-01T06:10:23;20.50;;;2.80;;
23714;SDS011;12036;50.858;4.472;2023-02-01T06:12:49;16.08;;;2.72;;
23714;SDS011;12036;50.858;4.472;2023-02-01T06:15:14;20.30;;;3.40;;
23714;SDS011;12036;50.858;4.472;2023-02-01T06:17:41;16.27;;;2.58;;
23714;SDS011;12036;50.858;4.472;2023-02-01T06:20:09;16.52;;;2.35;;
23714;SDS011;12036;50.858;4.472;2023-02-01T06:22:35;22.15;;;2.92;;
23714;SDS011;12036;50.858;4.472;2023-02-01T06:25:05;14.00;;;3.08;;
23714;SDS011;12036;50.858;4.472;2023-02-01T06:27:34;14.50;;;3.13;;
23714;SDS011;12036;50.858;4.472;2023-02-01T06:30:00;21.40;;;3.15;;
23714;SDS011;12036;50.858;4.472;2023-02-01T06:32:27;21.15;;;3.58;;
23714;SDS011;12036;50.858;4.472;2023-02-01T06:34:53;15.23;;;3.30;;
23714;SDS011;12036;50.858;4.472;2023-02-01T06:37:19;17.73;;;2.88;;
23714;SDS011;12036;50.858;4.472;2023-02-01T06:39:45;16.10;;;2.53;;
23714;SDS011;12036;50.858;4.472;2023-02-01T06:42:10;18.05;;;2.65;;
23714;SDS011;12036;50.858;4.472;2023-02-01T06:44:36;15.82;;;3.28;;
23714;SDS011;12036;50.858;4.472;2023-02-01T06:47:03;10.73;;;2.70;;
23714;SDS011;12036;50.858;4.472;2023-02-01T06:49:29;18.30;;;2.95;;
23714;SDS011;12036;50.858;4.472;2023-02-01T06:51:54;20.50;;;3.25;;
23714;SDS011;12036;50.858;4.472;2023-02-01T06:54:20;9.30;;;2.60;;
23714;SDS011;12036;50.858;4.472;2023-02-01T06:56:46;20.02;;;2.95;;
23714;SDS011;12036;50.858;4.472;2023-02-01T06:59:12;15.77;;;2.90;;
23714;SDS011;12036;50.858;4.472;2023-02-01T07:01:37;13.27;;;2.70;;
23714;SDS011;12036;50.858;4.472;2023-02-01T07:04:03;21.08;;;3.00;;
23714;SDS011;12036;50.858;4.472;2023-02-01T07:06:29;18.90;;;2.90;;
23714;SDS011;12036;50.858;4.472;2023-02-01T07:08:54;18.98;;;3.28;;
23714;SDS011;12036;50.858;4.472;2023-02-01T07:11:23;19.95;;;3.35;;
23714;SDS011;12036;50.858;4.472;2023-02-01T07:13:49;25.90;;;3.20;;
23714;SDS011;12036;50.858;4.472;2023-02-01T07:16:16;16.58;;;2.97;;
23714;SDS011;12036;50.858;4.472;2023-02-01T07:18:43;19.70;;;3.25;;
23714;SDS011;12036;50.858;4.472;2023-02-01T07:21:09;16.67;;;3.38;;
23714;SDS011;12036;50.858;4.472;2023-02-01T07:23:35;16.17;;;3.08;;
23714;SDS011;12036;50.858;4.472;2023-02-01T07:26:02;21.48;;;3.00;;
23714;SDS011;12036;50.858;4.472;2023-02-01T07:28:30;15.38;;;3.28;;
23714;SDS011;12036;50.858;4.472;2023-02-01T07:33:47;21.85;;;3.88;;
23714;SDS011;12036;50.858;4.472;2023-02-01T07:36:16;23.15;;;3.33;;
23714;SDS011;12036;50.858;4.472;2023-02-01T07:38:43;17.52;;;3.28;;
23714;SDS011;12036;50.858;4.472;2023-02-01T07:41:09;21.38;;;3.10;;
23714;SDS011;12036;50.858;4.472;2023-02-01T07:43:35;18.45;;;3.78;;
23714;SDS011;12036;50.858;4.472;2023-02-01T07:46:01;14.05;;;3.05;;
23714;SDS011;12036;50.858;4.472;2023-02-01T07:48:28;24.50;;;3.50;;
23714;SDS011;12036;50.858;4.472;2023-02-01T07:51:02;11.57;;;3.08;;
23714;SDS011;12036;50.858;4.472;2023-02-01T07:53:28;19.08;;;3.17;;
23714;SDS011;12036;50.858;4.472;2023-02-01T07:55:55;11.68;;;2.50;;
23714;SDS011;12036;50.858;4.472;2023-02-01T07:58:21;17.10;;;2.80;;
23714;SDS011;12036;50.858;4.472;2023-02-01T08:00:47;16.65;;;3.65;;
23714;SDS011;12036;50.858;4.472;2023-02-01T08:03:31;16.80;;;3.25;;
23714;SDS011;12036;50.858;4.472;2023-02-01T08:05:57;22.77;;;3.92;;
23714;SDS011;12036;50.858;4.472;2023-02-01T08:08:23;17.50;;;3.70;;
23714;SDS011;12036;50.858;4.472;2023-02-01T08:10:49;21.13;;;3.47;;
23714;SDS011;12036;50.858;4.472;2023-02-01T08:13:15;16.95;;;2.78;;
23714;SDS011;12036;50.858;4.472;2023-02-01T08:15:41;18.52;;;3.38;;
23714;SDS011;12036;50.858;4.472;2023-02-01T08:18:07;15.23;;;3.13;;
23714;SDS011;12036;50.858;4.472;2023-02-01T08:20:35;12.20;;;3.00;;
23714;SDS011;12036;50.858;4.472;2023-02-01T08:23:01;19.17;;;2.83;;
23714;SDS011;12036;50.858;4.472;2023-02-01T08:25:27;18.30;;;2.83;;
23714;SDS011;12036;50.858;4.472;2023-02-01T08:27:52;17.77;;;3.45;;
23714;SDS011;12036;50.858;4.472;2023-02-01T08:30:19;15.68;;;3.13;;
23714;SDS011;12036;50.858;4.472;2023-02-01T08:32:45;16.88;;;3.05;;
23714;SDS011;12036;50.858;4.472;2023-02-01T08:35:11;18.90;;;2.97;;
23714;SDS011;12036;50.858;4.472;2023-02-01T08:37:37;19.42;;;3.35;;
23714;SDS011;12036;50.858;4.472;2023-02-01T08:40:03;18.55;;;2.95;;
23714;SDS011;12036;50.858;4.472;2023-02-01T08:42:30;20.25;;;3.70;;
23714;SDS011;12036;50.858;4.472;2023-02-01T08:45:14;22.00;;;3.67;;
23714;SDS011;12036;50.858;4.472;2023-02-01T08:47:40;16.17;;;3.42;;
23714;SDS011;12036;50.858;4.472;2023-02-01T08:50:05;20.70;;;2.83;;
23714;SDS011;12036;50.858;4.472;2023-02-01T08:52:31;22.73;;;3.67;;
23714;SDS011;12036;50.858;4.472;2023-02-01T08:54:57;13.68;;;3.25;;
23714;SDS011;12036;50.858;4.472;2023-02-01T08:57:23;26.45;;;3.42;;
23714;SDS011;12036;50.858;4.472;2023-02-01T08:59:48;14.27;;;3.40;;
23714;SDS011;12036;50.858;4.472;2023-02-01T09:02:15;17.33;;;2.90;;
23714;SDS011;12036;50.858;4.472;2023-02-01T09:04:41;16.40;;;3.53;;
23714;SDS011;12036;50.858;4.472;2023-02-01T09:07:08;11.65;;;2.88;;
23714;SDS011;12036;50.858;4.472;2023-02-01T09:09:34;17.38;;;3.65;;
23714;SDS011;12036;50.858;4.472;2023-02-01T09:12:01;20.08;;;3.05;;
23714;SDS011;12036;50.858;4.472;2023-02-01T09:14:27;15.48;;;2.95;;
23714;SDS011;12036;50.858;4.472;2023-02-01T09:16:53;20.70;;;3.80;;
23714;SDS011;12036;50.858;4.472;2023-02-01T09:19:19;19.17;;;3.42;;
23714;SDS011;12036;50.858;4.472;2023-02-01T09:21:44;18.35;;;3.22;;
23714;SDS011;12036;50.858;4.472;2023-02-01T09:24:10;21.95;;;3.65;;
23714;SDS011;12036;50.858;4.472;2023-02-01T09:26:36;14.27;;;3.50;;
23714;SDS011;12036;50.858;4.472;2023-02-01T09:29:02;16.45;;;3.03;;
23714;SDS011;12036;50.858;4.472;2023-02-01T09:31:28;16.40;;;2.72;;
23714;SDS011;12036;50.858;4.472;2023-02-01T09:33:55;12.90;;;3.10;;
23714;SDS011;12036;50.858;4.472;2023-02-01T09:36:21;19.35;;;3.38;;
23714;SDS011;12036;50.858;4.472;2023-02-01T09:38:48;20.02;;;3.38;;
23714;SDS011;12036;50.858;4.472;2023-02-01T09:41:26;11.63;;;2.85;;
23714;SDS011;12036;50.858;4.472;2023-02-01T09:44:06;19.00;;;3.28;;
23714;SDS011;12036;50.858;4.472;2023-02-01T09:46:33;20.83;;;3.63;;
23714;SDS011;12036;50.858;4.472;2023-02-01T09:49:04;13.63;;;2.72;;
23714;SDS011;12036;50.858;4.472;2023-02-01T09:51:48;19.50;;;3.33;;
23714;SDS011;12036;50.858;4.472;2023-02-01T09:54:17;22.10;;;2.80;;
23714;SDS011;12036;50.858;4.472;2023-02-01T09:57:03;16.38;;;3.58;;
23714;SDS011;12036;50.858;4.472;2023-02-01T10:02:17;11.13;;;2.55;;
23714;SDS011;12036;50.858;4.472;2023-02-01T10:04:47;13.90;;;3.30;;
23714;SDS011;12036;50.858;4.472;2023-02-01T10:26:08;14.48;;;2.85;;
23714;SDS011;12036;50.858;4.472;2023-02-01T10:28:55;18.13;;;2.72;;
23714;SDS011;12036;50.858;4.472;2023-02-01T10:31:25;19.90;;;2.58;;
23714;SDS011;12036;50.858;4.472;2023-02-01T10:33:58;13.85;;;2.53;;
23714;SDS011;12036;50.858;4.472;2023-02-01T10:36:35;19.20;;;2.35;;
23714;SDS011;12036;50.858;4.472;2023-02-01T10:39:15;15.48;;;2.72;;
23714;SDS011;12036;50.858;4.472;2023-02-01T10:41:41;13.13;;;2.67;;
23714;SDS011;12036;50.858;4.472;2023-02-01T10:44:15;15.15;;;2.40;;
23714;SDS011;12036;50.858;4.472;2023-02-01T10:46:53;16.75;;;2.78;;
23714;SDS011;12036;50.858;4.472;2023-02-01T10:49:20;18.10;;;2.65;;
23714;SDS011;12036;50.858;4.472;2023-02-01T10:52:18;11.57;;;2.42;;
23714;SDS011;12036;50.858;4.472;2023-02-01T10:54:50;12.18;;;2.28;;
23714;SDS011;12036;50.858;4.472;2023-02-01T10:57:21;10.15;;;2.38;;
23714;SDS011;12036;50.858;4.472;2023-02-01T10:59:53;13.65;;;2.10;;
23714;SDS011;12036;50.858;4.472;2023-02-01T11:02:20;10.10;;;2.22;;
23714;SDS011;12036;50.858;4.472;2023-02-01T11:05:09;16.55;;;2.35;;
23714;SDS011;12036;50.858;4.472;2023-02-01T11:07:37;9.70;;;2.20;;
23714;SDS011;12036;50.858;4.472;2023-02-01T11:10:13;10.80;;;2.88;;
23714;SDS011;12036;50.858;4.472;2023-02-01T11:13:16;11.30;;;2.63;;
23714;SDS011;12036;50.858;4.472;2023-02-01T11:15:44;14.00;;;2.17;;
23714;SDS011;12036;50.858;4.472;2023-02-01T11:18:17;13.93;;;1.58;;
23714;SDS011;12036;50.858;4.472;2023-02-01T11:20:49;13.77;;;2.60;;
23714;SDS011;12036;50.858;4.472;2023-02-01T11:23:18;12.88;;;2.67;;
23714;SDS011;12036;50.858;4.472;2023-02-01T11:26:09;9.18;;;2.08;;
23714;SDS011;12036;50.858;4.472;2023-02-01T11:28:38;12.45;;;2.30;;
23714;SDS011;12036;50.858;4.472;2023-02-01T11:31:09;13.30;;;2.33;;
23714;SDS011;12036;50.858;4.472;2023-02-01T11:33:37;10.45;;;2.42;;
23714;SDS011;12036;50.858;4.472;2023-02-01T11:36:09;17.80;;;2.63;;
23714;SDS011;12036;50.858;4.472;2023-02-01T11:38:45;14.00;;;2.00;;
23714;SDS011;12036;50.858;4.472;2023-02-01T11:41:23;12.00;;;2.28;;
23714;SDS011;12036;50.858;4.472;2023-02-01T11:43:58;10.90;;;2.17;;
23714;SDS011;12036;50.858;4.472;2023-02-01T11:46:33;13.68;;;2.25;;
23714;SDS011;12036;50.858;4.472;2023-02-01T11:52:03;14.57;;;2.00;;
23714;SDS011;12036;50.858;4.472;2023-02-01T12:00:08;11.13;;;2.03;;
23714;SDS011;12036;50.858;4.472;2023-02-01T12:02:47;14.98;;;2.28;;
23714;SDS011;12036;50.858;4.472;2023-02-01T12:16:41;7.03;;;2.15;;
23714;SDS011;12036;50.858;4.472;2023-02-01T12:32:53;11.65;;;1.63;;
23714;SDS011;12036;50.858;4.472;2023-02-01T12:41:37;13.98;;;1.52;;
23714;SDS011;12036;50.858;4.472;2023-02-01T12:44:35;6.13;;;1.33;;
23714;SDS011;12036;50.858;4.472;2023-02-01T12:47:23;6.45;;;1.27;;
23714;SDS011;12036;50.858;4.472;2023-02-01T12:50:18;7.93;;;1.40;;
23714;SDS011;12036;50.858;4.472;2023-02-01T12:52:47;6.43;;;1.40;;
23714;SDS011;12036;50.858;4.472;2023-02-01T12:57:52;9.65;;;1.73;;
23714;SDS011;12036;50.858;4.472;2023-02-01T13:00:44;16.45;;;1.58;;
23714;SDS011;12036;50.858;4.472;2023-02-01T13:08:48;10.15;;;1.45;;
23714;SDS011;12036;50.858;4.472;2023-02-01T13:11:37;5.68;;;1.20;;
23714;SDS011;12036;50.858;4.472;2023-02-01T13:17:18;8.55;;;1.58;;
23714;SDS011;12036;50.858;4.472;2023-02-01T13:19:53;10.38;;;1.83;;
23714;SDS011;12036;50.858;4.472;2023-02-01T13:22:25;9.40;;;1.30;;
23714;SDS011;12036;50.858;4.472;2023-02-01T13:24:57;9.30;;;1.30;;
23714;SDS011;12036;50.858;4.472;2023-02-01T13:27:49;6.13;;;1.15;;
23714;SDS011;12036;50.858;4.472;2023-02-01T13:32:59;7.20;;;1.30;;
23714;SDS011;12036;50.858;4.472;2023-02-01T13:41:28;6.10;;;1.42;;
23714;SDS011;12036;50.858;4.472;2023-02-01T13:44:04;6.82;;;1.33;;
23714;SDS011;12036;50.858;4.472;2023-02-01T13:46:40;9.85;;;1.70;;
23714;SDS011;12036;50.858;4.472;2023-02-01T13:49:15;4.97;;;1.02;;
23714;SDS011;12036;50.858;4.472;2023-02-01T13:51:47;8.77;;;1.30;;
23714;SDS011;12036;50.858;4.472;2023-02-01T13:54:26;10.85;;;1.60;;
23714;SDS011;12036;50.858;4.472;2023-02-01T14:05:08;8.65;;;1.30;;
23714;SDS011;12036;50.858;4.472;2023-02-01T14:07:34;11.00;;;1.50;;
23714;SDS011;12036;50.858;4.472;2023-02-01T14:10:46;9.82;;;1.88;;
23714;SDS011;12036;50.858;4.472;2023-02-01T14:13:05;10.90;;;1.48;;
23714;SDS011;12036;50.858;4.472;2023-02-01T14:23:42;6.13;;;1.90;;
23714;SDS011;12036;50.858;4.472;2023-02-01T14:26:19;9.73;;;1.73;;
23714;SDS011;12036;50.858;4.472;2023-02-01T14:28:56;10.05;;;1.48;;
23714;SDS011;12036;50.858;4.472;2023-02-01T14:33:57;11.02;;;1.80;;
23714;SDS011;12036;50.858;4.472;2023-02-01T14:36:25;9.40;;;1.90;;
23714;SDS011;12036;50.858;4.472;2023-02-01T14:38:52;14.48;;;1.63;;
23714;SDS011;12036;50.858;4.472;2023-02-01T14:49:34;8.98;;;1.75;;
23714;SDS011;12036;50.858;4.472;2023-02-01T14:54:55;8.30;;;1.73;;
23714;SDS011;12036;50.858;4.472;2023-02-01T14:57:26;9.93;;;1.48;;
23714;SDS011;12036;50.858;4.472;2023-02-01T15:00:00;7.88;;;1.33;;
23714;SDS011;12036;50.858;4.472;2023-02-01T15:02:41;8.57;;;1.50;;
23714;SDS011;12036;50.858;4.472;2023-02-01T15:05:20;11.00;;;1.75;;
23714;SDS011;12036;50.858;4.472;2023-02-01T15:07:56;9.20;;;1.63;;
23714;SDS011;12036;50.858;4.472;2023-02-01T15:10:44;14.43;;;1.60;;
23714;SDS011;12036;50.858;4.472;2023-02-01T15:16:03;8.82;;;1.63;;
23714;SDS011;12036;50.858;4.472;2023-02-01T15:18:37;8.93;;;1.60;;
23714;SDS011;12036;50.858;4.472;2023-02-01T15:21:04;9.23;;;1.88;;
23714;SDS011;12036;50.858;4.472;2023-02-01T15:23:31;6.70;;;1.45;;
23714;SDS011;12036;50.858;4.472;2023-02-01T15:25:57;11.27;;;1.90;;
23714;SDS011;12036;50.858;4.472;2023-02-01T15:28:24;7.38;;;1.98;;
23714;SDS011;12036;50.858;4.472;2023-02-01T15:31:00;8.77;;;1.85;;
23714;SDS011;12036;50.858;4.472;2023-02-01T15:33:29;9.40;;;1.70;;
23714;SDS011;12036;50.858;4.472;2023-02-01T15:38:32;14.45;;;2.38;;
23714;SDS011;12036;50.858;4.472;2023-02-01T15:41:11;8.20;;;1.92;;
23714;SDS011;12036;50.858;4.472;2023-02-01T15:46:12;14.25;;;2.28;;
23714;SDS011;12036;50.858;4.472;2023-02-01T15:48:45;15.23;;;2.35;;
23714;SDS011;12036;50.858;4.472;2023-02-01T15:51:14;10.15;;;1.45;;
23714;SDS011;12036;50.858;4.472;2023-02-01T15:56:29;11.88;;;2.08;;
23714;SDS011;12036;50.858;4.472;2023-02-01T15:59:01;18.10;;;1.95;;
23714;SDS011;12036;50.858;4.472;2023-02-01T16:01:28;18.95;;;2.22;;
23714;SDS011;12036;50.858;4.472;2023-02-01T16:06:48;11.52;;;2.15;;
23714;SDS011;12036;50.858;4.472;2023-02-01T16:09:17;11.27;;;2.40;;
23714;SDS011;12036;50.858;4.472;2023-02-01T16:11:59;6.55;;;2.03;;
23714;SDS011;12036;50.858;4.472;2023-02-01T16:14:26;11.13;;;2.22;;
23714;SDS011;12036;50.858;4.472;2023-02-01T16:16:55;11.07;;;2.42;;
23714;SDS011;12036;50.858;4.472;2023-02-01T16:19:22;13.43;;;2.78;;
23714;SDS011;12036;50.858;4.472;2023-02-01T16:21:53;8.77;;;1.98;;
23714;SDS011;12036;50.858;4.472;2023-02-01T16:24:19;11.60;;;2.60;;
23714;SDS011;12036;50.858;4.472;2023-02-01T16:26:47;9.80;;;2.83;;
23714;SDS011;12036;50.858;4.472;2023-02-01T16:29:12;11.00;;;2.38;;
23714;SDS011;12036;50.858;4.472;2023-02-01T16:31:40;11.25;;;2.03;;
23714;SDS011;12036;50.858;4.472;2023-02-01T16:34:06;15.75;;;2.47;;
23714;SDS011;12036;50.858;4.472;2023-02-01T16:36:42;16.48;;;2.30;;
23714;SDS011;12036;50.858;4.472;2023-02-01T16:39:10;10.60;;;2.63;;
23714;SDS011;12036;50.858;4.472;2023-02-01T16:41:38;13.65;;;2.35;;
23714;SDS011;12036;50.858;4.472;2023-02-01T16:44:04;10.38;;;2.88;;
23714;SDS011;12036;50.858;4.472;2023-02-01T16:46:32;11.95;;;2.13;;
23714;SDS011;12036;50.858;4.472;2023-02-01T16:49:04;14.15;;;2.58;;
23714;SDS011;12036;50.858;4.472;2023-02-01T16:51:31;10.95;;;2.35;;
23714;SDS011;12036;50.858;4.472;2023-02-01T16:53:58;13.35;;;2.38;;
23714;SDS011;12036;50.858;4.472;2023-02-01T16:56:28;14.27;;;3.03;;
23714;SDS011;12036;50.858;4.472;2023-02-01T16:58:57;13.18;;;2.13;;
23714;SDS011;12036;50.858;4.472;2023-02-01T17:01:23;12.10;;;2.40;;
23714;SDS011;12036;50.858;4.472;2023-02-01T17:03:49;16.52;;;2.40;;
23714;SDS011;12036;50.858;4.472;2023-02-01T17:06:19;9.52;;;2.15;;
23714;SDS011;12036;50.858;4.472;2023-02-01T17:11:16;11.38;;;2.00;;
23714;SDS011;12036;50.858;4.472;2023-02-01T17:13:42;9.60;;;2.90;;
23714;SDS011;12036;50.858;4.472;2023-02-01T17:16:26;9.50;;;2.15;;
23714;SDS011;12036;50.858;4.472;2023-02-01T17:19:03;11.23;;;1.92;;
23714;SDS011;12036;50.858;4.472;2023-02-01T17:21:35;17.38;;;2.72;;
23714;SDS011;12036;50.858;4.472;2023-02-01T17:24:07;16.17;;;2.53;;
23714;SDS011;12036;50.858;4.472;2023-02-01T17:26:34;11.48;;;2.90;;
23714;SDS011;12036;50.858;4.472;2023-02-01T17:29:00;17.45;;;3.17;;
23714;SDS011;12036;50.858;4.472;2023-02-01T17:31:26;18.92;;;2.40;;
23714;SDS011;12036;50.858;4.472;2023-02-01T17:33:53;13.10;;;2.35;;
23714;SDS011;12036;50.858;4.472;2023-02-01T17:36:18;17.10;;;2.92;;
23714;SDS011;12036;50.858;4.472;2023-02-01T17:38:44;25.75;;;3.08;;
23714;SDS011;12036;50.858;4.472;2023-02-01T17:41:10;11.13;;;2.63;;
23714;SDS011;12036;50.858;4.472;2023-02-01T17:43:37;15.23;;;2.75;;
23714;SDS011;12036;50.858;4.472;2023-02-01T17:46:05;11.95;;;2.47;;
23714;SDS011;12036;50.858;4.472;2023-02-01T17:48:38;15.95;;;2.65;;
23714;SDS011;12036;50.858;4.472;2023-02-01T17:51:04;17.40;;;3.22;;